Time;durP1;ratioP1;P1;durP2;ratioP2;P2;SDS_P1;SDS_P2;PMS_P1;PMS_P2;Temp;Humidity;BMP_temperature;BMP_pressure;BME280_temperature;BME280_humidity;BME280_pressure;Samples;Min_cycle;Max_cycle;Signal;HPM_P1;HPM_P2
2023/01/31 00:00:45;;;;;;;20.27;2.97;;;;;;;;;;5028373;28;20293;-68
2023/01/31 00:03:10;;;;;;;26.33;2.97;;;;;;;;;;5025634;28;20197;-68
2023/01/31 00:05:36;;;;;;;22.00;3.17;;;;;;;;;;5027354;28;20536;-68
2023/01/31 00:08:01;;;;;;;21.97;3.50;;;;;;;;;;5027730;28;20179;-68
2023/01/31 00:10:27;;;;;;;25.73;3.50;;;;;;;;;;5032757;28;20269;-68
2023/01/31 00:12:52;;;;;;;21.50;3.00;;;;;;;;;;5028081;28;20266;-68
2023/01/31 00:15:18;;;;;;;22.47;3.17;;;;;;;;;;5028413;28;20584;-67
2023/01/31 00:17:44;;;;;;;22.30;3.50;;;;;;;;;;5026221;28;20234;-68
2023/01/31 00:20:10;;;;;;;23.63;3.30;;;;;;;;;;5028652;28;20613;-67
2023/01/31 00:22:36;;;;;;;16.73;2.50;;;;;;;;;;5025532;28;20201;-68
2023/01/31 00:25:01;;;;;;;22.40;3.00;;;;;;;;;;5024450;28;20195;-68
2023/01/31 00:27:27;;;;;;;21.10;2.83;;;;;;;;;;5030429;28;20178;-67
2023/01/31 00:29:52;;;;;;;27.87;3.00;;;;;;;;;;5027309;28;20296;-68
2023/01/31 00:32:18;;;;;;;15.00;2.30;;;;;;;;;;5030448;28;20252;-68
2023/01/31 00:34:43;;;;;;;32.87;4.50;;;;;;;;;;5031392;28;20216;-68
2023/01/31 00:37:08;;;;;;;26.00;2.53;;;;;;;;;;5028778;28;20316;-67
2023/01/31 00:39:34;;;;;;;27.50;3.10;;;;;;;;;;5038985;28;20186;-67
2023/01/31 00:41:59;;;;;;;22.40;2.40;;;;;;;;;;5012532;28;20213;-68
2023/01/31 00:44:25;;;;;;;23.17;2.70;;;;;;;;;;5038753;28;20592;-68
2023/01/31 00:46:50;;;;;;;18.53;3.00;;;;;;;;;;5028042;28;20190;-68
2023/01/31 00:49:15;;;;;;;16.77;2.47;;;;;;;;;;5029731;28;20190;-68
2023/01/31 00:51:41;;;;;;;18.00;2.70;;;;;;;;;;5026555;28;20733;-68
2023/01/31 00:54:06;;;;;;;18.47;2.87;;;;;;;;;;5032467;28;20222;-68
2023/01/31 00:56:31;;;;;;;13.90;2.47;;;;;;;;;;5032668;28;20197;-68
2023/01/31 00:58:57;;;;;;;20.07;2.43;;;;;;;;;;5030320;28;20641;-68
2023/01/31 01:01:27;;;;;;;24.57;2.83;;;;;;;;;;5025728;28;20246;-68
2023/01/31 01:03:54;;;;;;;25.43;2.70;;;;;;;;;;5025190;28;20186;-68
2023/01/31 01:06:21;;;;;;;23.93;2.20;;;;;;;;;;5037890;28;20189;-68
2023/01/31 01:08:46;;;;;;;17.60;2.70;;;;;;;;;;5019159;28;20179;-68
2023/01/31 01:11:24;;;;;;;21.03;2.63;;;;;;;;;;5021727;28;20217;-68
2023/01/31 01:13:50;;;;;;;20.17;2.40;;;;;;;;;;5033274;28;20658;-68
2023/01/31 01:16:21;;;;;;;18.23;3.60;;;;;;;;;;5039619;28;20699;-68
2023/01/31 01:18:49;;;;;;;28.93;3.03;;;;;;;;;;5041753;28;20371;-68
2023/01/31 01:21:20;;;;;;;30.20;3.23;;;;;;;;;;5023268;28;20194;-68
2023/01/31 01:23:47;;;;;;;20.57;2.50;;;;;;;;;;5025414;28;20278;-68
2023/01/31 01:26:14;;;;;;;25.40;3.40;;;;;;;;;;5026036;28;20186;-69
2023/01/31 01:28:40;;;;;;;18.13;3.13;;;;;;;;;;5040171;28;20205;-68
2023/01/31 01:31:07;;;;;;;20.07;2.93;;;;;;;;;;5030363;28;20230;-68
2023/01/31 01:33:33;;;;;;;21.33;2.70;;;;;;;;;;5034273;28;20552;-68
2023/01/31 01:36:03;;;;;;;16.03;2.67;;;;;;;;;;5021338;28;20194;-69
2023/01/31 01:38:29;;;;;;;20.87;3.20;;;;;;;;;;5034350;28;20252;-68
2023/01/31 01:40:54;;;;;;;21.30;2.77;;;;;;;;;;5022572;28;20657;-68
2023/01/31 01:43:38;;;;;;;22.10;2.67;;;;;;;;;;5034761;28;20561;-68
2023/01/31 01:46:03;;;;;;;21.93;3.17;;;;;;;;;;5024051;28;20194;-69
2023/01/31 01:48:29;;;;;;;28.23;3.67;;;;;;;;;;5037285;28;20629;-69
2023/01/31 01:50:54;;;;;;;24.93;3.77;;;;;;;;;;5043903;28;20190;-68
2023/01/31 01:53:21;;;;;;;19.53;2.93;;;;;;;;;;5035004;28;20578;-68
2023/01/31 01:55:54;;;;;;;24.30;3.40;;;;;;;;;;5028090;28;20190;-68
2023/01/31 01:58:32;;;;;;;28.93;3.07;;;;;;;;;;5024875;28;20673;-68
2023/01/31 02:00:58;;;;;;;31.37;3.37;;;;;;;;;;5036239;28;20248;-68
2023/01/31 02:03:23;;;;;;;24.80;2.90;;;;;;;;;;5026479;28;20260;-68
2023/01/31 02:05:54;;;;;;;23.07;3.13;;;;;;;;;;5032695;28;20189;-68
2023/01/31 02:08:22;;;;;;;18.63;3.20;;;;;;;;;;5028031;28;20671;-68
2023/01/31 02:11:00;;;;;;;18.70;4.17;;;;;;;;;;5019688;28;20628;-68
2023/01/31 02:13:26;;;;;;;21.30;3.10;;;;;;;;;;5027220;28;20259;-69
2023/01/31 02:15:52;;;;;;;17.57;3.40;;;;;;;;;;5026929;28;20186;-68
2023/01/31 02:18:19;;;;;;;20.70;3.43;;;;;;;;;;5027461;28;20240;-68
2023/01/31 02:21:21;;;;;;;19.87;2.83;;;;;;;;;;5027224;28;20416;-69
2023/01/31 02:24:05;;;;;;;24.47;3.90;;;;;;;;;;5024312;28;20189;-69
2023/01/31 02:26:52;;;;;;;22.20;3.20;;;;;;;;;;5025073;28;20650;-68
2023/01/31 02:29:53;;;;;;;14.40;2.83;;;;;;;;;;5031205;28;20177;-68
2023/01/31 02:32:36;;;;;;;23.73;3.13;;;;;;;;;;5021285;28;20210;-68
2023/01/31 02:35:27;;;;;;;17.20;2.83;;;;;;;;;;5021738;28;20209;-69
2023/01/31 02:38:16;;;;;;;31.00;3.97;;;;;;;;;;5024933;28;20284;-68
2023/01/31 02:40:51;;;;;;;24.47;3.27;;;;;;;;;;5024509;28;20186;-68
2023/01/31 02:43:31;;;;;;;22.70;4.00;;;;;;;;;;5030166;28;20281;-68
2023/01/31 02:46:06;;;;;;;18.97;2.70;;;;;;;;;;5034345;28;20591;-68
2023/01/31 02:48:50;;;;;;;30.57;3.83;;;;;;;;;;5015249;28;20220;-69
2023/01/31 02:51:28;;;;;;;22.93;3.20;;;;;;;;;;5022556;28;20316;-68
2023/01/31 02:54:01;;;;;;;15.87;2.43;;;;;;;;;;5025431;28;20198;-68
2023/01/31 02:56:31;;;;;;;22.87;2.77;;;;;;;;;;5023855;28;20349;-68
2023/01/31 02:59:05;;;;;;;18.57;2.83;;;;;;;;;;5018469;28;20202;-68
2023/01/31 03:01:34;;;;;;;23.00;2.90;;;;;;;;;;5030803;28;20296;-68
2023/01/31 03:04:07;;;;;;;16.10;2.57;;;;;;;;;;5021112;28;20204;-68
2023/01/31 03:06:35;;;;;;;22.87;3.03;;;;;;;;;;5038426;28;20300;-68
2023/01/31 03:09:20;;;;;;;22.20;2.57;;;;;;;;;;5026063;28;20708;-68
2023/01/31 03:12:05;;;;;;;18.73;2.57;;;;;;;;;;5039283;28;20724;-68
2023/01/31 03:14:36;;;;;;;22.60;2.73;;;;;;;;;;5035887;28;20211;-68
2023/01/31 03:17:45;;;;;;;14.27;2.60;;;;;;;;;;5032150;28;20205;-68
2023/01/31 03:20:28;;;;;;;19.93;2.33;;;;;;;;;;5006988;28;20249;-68
2023/01/31 03:22:58;;;;;;;17.30;2.40;;;;;;;;;;5011876;28;20259;-68
2023/01/31 03:25:27;;;;;;;19.73;2.60;;;;;;;;;;5021806;28;20537;-68
2023/01/31 03:27:58;;;;;;;18.43;2.60;;;;;;;;;;5030889;28;20705;-68
2023/01/31 03:30:38;;;;;;;13.90;2.30;;;;;;;;;;5041396;28;20696;-68
2023/01/31 03:33:18;;;;;;;22.20;2.90;;;;;;;;;;5021748;28;20281;-68
2023/01/31 03:35:50;;;;;;;15.23;2.27;;;;;;;;;;5031474;28;20237;-68
2023/01/31 03:38:17;;;;;;;22.00;2.90;;;;;;;;;;5027067;28;20202;-68
2023/01/31 03:40:50;;;;;;;20.63;2.93;;;;;;;;;;5019973;28;20653;-68
2023/01/31 03:43:30;;;;;;;21.90;3.57;;;;;;;;;;5025200;28;20590;-68
2023/01/31 03:46:04;;;;;;;25.83;3.23;;;;;;;;;;5045099;28;20264;-68
2023/01/31 03:48:36;;;;;;;20.30;2.70;;;;;;;;;;5042330;28;20193;-68
2023/01/31 03:51:06;;;;;;;14.50;2.80;;;;;;;;;;5032641;28;20204;-68
2023/01/31 03:53:46;;;;;;;23.47;5.27;;;;;;;;;;5023337;28;20190;-68
2023/01/31 03:56:17;;;;;;;12.57;2.60;;;;;;;;;;5015809;28;20209;-68
2023/01/31 03:58:49;;;;;;;16.47;2.50;;;;;;;;;;5028438;28;20680;-68
2023/01/31 04:01:17;;;;;;;23.67;2.63;;;;;;;;;;5036932;28;20613;-68
2023/01/31 04:03:47;;;;;;;18.80;3.50;;;;;;;;;;5035743;28;20190;-68
2023/01/31 04:06:13;;;;;;;20.80;3.70;;;;;;;;;;5031535;28;20200;-69
2023/01/31 04:08:39;;;;;;;19.40;3.33;;;;;;;;;;5029517;28;20194;-68
2023/01/31 04:11:10;;;;;;;20.70;3.77;;;;;;;;;;5027679;28;20277;-68
2023/01/31 04:13:35;;;;;;;19.63;4.53;;;;;;;;;;5030739;28;20190;-69
2023/01/31 04:16:02;;;;;;;17.30;3.10;;;;;;;;;;5040559;28;20660;-68
2023/01/31 04:18:27;;;;;;;22.30;5.13;;;;;;;;;;5034067;28;20305;-68
2023/01/31 04:20:53;;;;;;;13.57;3.33;;;;;;;;;;5029104;28;20285;-68
2023/01/31 04:23:18;;;;;;;24.07;3.70;;;;;;;;;;5027602;28;20201;-67
2023/01/31 04:25:44;;;;;;;26.13;3.87;;;;;;;;;;5028746;28;20222;-67
2023/01/31 04:28:10;;;;;;;24.90;4.00;;;;;;;;;;5027435;28;20289;-68
2023/01/31 04:30:36;;;;;;;15.67;3.60;;;;;;;;;;5029018;28;20716;-67
2023/01/31 04:33:01;;;;;;;21.80;4.23;;;;;;;;;;5029828;28;20197;-68
2023/01/31 04:35:27;;;;;;;23.47;3.83;;;;;;;;;;5028485;28;20280;-68
2023/01/31 04:37:52;;;;;;;16.07;3.60;;;;;;;;;;5037259;28;20209;-67
2023/01/31 04:40:18;;;;;;;14.67;3.80;;;;;;;;;;5038696;28;20194;-68
2023/01/31 04:42:43;;;;;;;24.70;4.37;;;;;;;;;;5021961;28;20206;-67
2023/01/31 04:45:09;;;;;;;22.83;4.37;;;;;;;;;;5034630;28;20206;-67
2023/01/31 04:47:34;;;;;;;19.07;5.30;;;;;;;;;;5028542;28;20717;-67
2023/01/31 04:50:00;;;;;;;25.30;4.53;;;;;;;;;;5029369;28;20205;-67
2023/01/31 04:52:25;;;;;;;26.23;4.73;;;;;;;;;;5024392;28;20255;-67
2023/01/31 04:54:51;;;;;;;21.80;4.60;;;;;;;;;;5032454;28;20645;-68
2023/01/31 04:57:16;;;;;;;36.47;5.50;;;;;;;;;;5037421;28;20673;-68
2023/01/31 04:59:41;;;;;;;20.00;4.53;;;;;;;;;;5029560;28;20275;-67
2023/01/31 05:02:07;;;;;;;25.47;4.53;;;;;;;;;;5026792;28;20650;-67
2023/01/31 05:04:32;;;;;;;15.20;3.83;;;;;;;;;;5029691;28;20194;-67
2023/01/31 05:06:58;;;;;;;32.00;5.40;;;;;;;;;;5033975;28;20205;-67
2023/01/31 05:09:23;;;;;;;21.60;4.70;;;;;;;;;;5038625;28;20660;-67
2023/01/31 05:11:49;;;;;;;27.57;5.03;;;;;;;;;;5036307;28;20189;-67
2023/01/31 05:14:15;;;;;;;20.27;4.23;;;;;;;;;;5040387;28;20549;-67
2023/01/31 05:16:42;;;;;;;23.93;4.50;;;;;;;;;;5042195;28;20354;-67
2023/01/31 05:19:08;;;;;;;29.97;5.23;;;;;;;;;;5041269;28;20200;-67
2023/01/31 05:21:53;;;;;;;23.07;4.90;;;;;;;;;;5028884;28;20608;-67
2023/01/31 05:24:19;;;;;;;23.63;4.93;;;;;;;;;;5026478;28;20260;-67
2023/01/31 05:26:44;;;;;;;22.07;5.30;;;;;;;;;;5026141;28;20197;-67
2023/01/31 05:29:10;;;;;;;18.30;5.07;;;;;;;;;;5029100;28;20191;-67
2023/01/31 05:31:35;;;;;;;25.30;5.33;;;;;;;;;;5025642;28;20309;-68
2023/01/31 05:34:00;;;;;;;20.93;5.63;;;;;;;;;;5026955;28;20189;-68
2023/01/31 05:36:26;;;;;;;27.73;6.23;;;;;;;;;;5030792;28;20277;-67
2023/01/31 05:38:51;;;;;;;29.17;6.10;;;;;;;;;;5040472;28;20601;-67
2023/01/31 05:41:16;;;;;;;24.23;5.73;;;;;;;;;;5041591;28;20217;-67
2023/01/31 05:43:42;;;;;;;28.03;5.70;;;;;;;;;;5023066;28;20252;-67
2023/01/31 05:46:07;;;;;;;22.07;5.83;;;;;;;;;;5024475;28;20201;-67
2023/01/31 05:48:32;;;;;;;25.63;6.57;;;;;;;;;;5016252;28;20280;-67
2023/01/31 05:50:58;;;;;;;25.63;6.47;;;;;;;;;;5028135;28;20205;-67
2023/01/31 05:53:23;;;;;;;39.10;7.37;;;;;;;;;;5021227;28;20860;-67
2023/01/31 05:55:49;;;;;;;29.70;6.77;;;;;;;;;;5025185;28;20194;-67
2023/01/31 05:58:15;;;;;;;28.50;7.47;;;;;;;;;;5023710;28;20427;-67
2023/01/31 06:00:40;;;;;;;23.20;6.43;;;;;;;;;;5024734;28;20655;-68
2023/01/31 06:03:06;;;;;;;38.00;7.47;;;;;;;;;;5015738;28;20256;-67
2023/01/31 06:05:31;;;;;;;33.53;8.17;;;;;;;;;;5029506;28;20693;-67
2023/01/31 06:07:56;;;;;;;33.73;7.97;;;;;;;;;;5024236;28;20596;-68
2023/01/31 06:10:22;;;;;;;29.47;7.57;;;;;;;;;;5034325;28;20259;-67
2023/01/31 06:12:47;;;;;;;25.87;7.97;;;;;;;;;;5027638;28;20205;-67
2023/01/31 06:15:13;;;;;;;31.73;7.73;;;;;;;;;;5028902;28;20186;-68
2023/01/31 06:17:38;;;;;;;34.77;9.17;;;;;;;;;;5028854;28;20568;-68
2023/01/31 06:20:04;;;;;;;35.70;9.83;;;;;;;;;;5028234;28;20217;-68
2023/01/31 06:22:30;;;;;;;30.33;8.80;;;;;;;;;;5020876;28;20221;-68
2023/01/31 06:24:55;;;;;;;38.73;9.03;;;;;;;;;;5017353;28;20190;-67
2023/01/31 06:27:21;;;;;;;27.83;9.20;;;;;;;;;;5022222;28;20205;-67
2023/01/31 06:29:46;;;;;;;35.90;9.43;;;;;;;;;;5025305;28;20248;-67
2023/01/31 06:32:11;;;;;;;36.47;10.27;;;;;;;;;;5020040;28;20652;-67
2023/01/31 06:34:37;;;;;;;38.07;11.10;;;;;;;;;;5026609;28;20240;-67
2023/01/31 06:37:02;;;;;;;30.97;9.60;;;;;;;;;;5027613;28;20226;-67
2023/01/31 06:39:27;;;;;;;39.67;10.93;;;;;;;;;;5028414;28;20614;-66
2023/01/31 06:41:53;;;;;;;30.47;9.63;;;;;;;;;;5034982;28;20197;-67
2023/01/31 06:44:18;;;;;;;34.77;10.50;;;;;;;;;;5024434;28;20190;-67
2023/01/31 06:46:44;;;;;;;34.33;10.63;;;;;;;;;;5026126;28;20197;-67
2023/01/31 06:49:09;;;;;;;37.50;11.10;;;;;;;;;;5019060;28;20195;-68
2023/01/31 06:51:34;;;;;;;32.73;11.17;;;;;;;;;;5025223;28;20548;-68
2023/01/31 06:54:00;;;;;;;40.43;11.27;;;;;;;;;;5023875;28;20202;-67
2023/01/31 06:56:25;;;;;;;31.03;10.53;;;;;;;;;;4330644;28;10000813;-67
2023/01/31 06:58:50;;;;;;;34.10;11.00;;;;;;;;;;5028616;28;20217;-67
2023/01/31 07:01:16;;;;;;;39.80;10.73;;;;;;;;;;5020945;28;20217;-68
2023/01/31 07:03:41;;;;;;;36.20;10.80;;;;;;;;;;5015661;28;20194;-68
2023/01/31 07:06:08;;;;;;;35.13;11.73;;;;;;;;;;5025891;28;20256;-68
2023/01/31 07:08:34;;;;;;;31.07;11.53;;;;;;;;;;5020651;28;20197;-68
2023/01/31 07:11:03;;;;;;;36.17;12.37;;;;;;;;;;5021603;28;20570;-68
2023/01/31 07:13:29;;;;;;;29.73;11.43;;;;;;;;;;5027210;28;20649;-67
2023/01/31 07:15:55;;;;;;;30.83;10.90;;;;;;;;;;5020244;28;20206;-68
2023/01/31 07:18:20;;;;;;;41.93;12.23;;;;;;;;;;5029705;28;20720;-68
2023/01/31 07:20:46;;;;;;;32.17;11.57;;;;;;;;;;5042038;28;20193;-69
2023/01/31 07:23:11;;;;;;;43.17;13.90;;;;;;;;;;5033711;28;20824;-69
2023/01/31 07:25:37;;;;;;;40.67;12.93;;;;;;;;;;5032824;28;20202;-68
2023/01/31 07:28:02;;;;;;;38.37;12.27;;;;;;;;;;5041433;28;20288;-68
2023/01/31 07:30:28;;;;;;;37.43;12.80;;;;;;;;;;5041643;28;20244;-69
2023/01/31 07:32:53;;;;;;;32.57;12.83;;;;;;;;;;5026950;28;20224;-68
2023/01/31 07:35:19;;;;;;;36.77;12.73;;;;;;;;;;5022711;28;20198;-68
2023/01/31 07:37:45;;;;;;;37.47;13.80;;;;;;;;;;5033660;28;20205;-68
2023/01/31 07:40:13;;;;;;;34.90;12.93;;;;;;;;;;5030150;28;20259;-68
2023/01/31 07:42:40;;;;;;;37.67;13.10;;;;;;;;;;5038521;28;20209;-68
2023/01/31 07:45:07;;;;;;;38.00;12.23;;;;;;;;;;5041037;28;20193;-68
2023/01/31 07:47:32;;;;;;;31.70;12.83;;;;;;;;;;5045571;28;20637;-68
2023/01/31 07:49:57;;;;;;;34.43;12.90;;;;;;;;;;5044869;28;20192;-67
2023/01/31 07:52:23;;;;;;;41.23;13.03;;;;;;;;;;5036161;28;20189;-68
2023/01/31 07:54:48;;;;;;;41.43;11.93;;;;;;;;;;5035012;28;20201;-68
2023/01/31 07:57:16;;;;;;;41.70;12.23;;;;;;;;;;5030457;28;20210;-68
2023/01/31 07:59:44;;;;;;;35.80;13.07;;;;;;;;;;5032348;28;20212;-68
2023/01/31 08:04:55;;;;;;;34.07;11.47;;;;;;;;;;5030586;28;20531;-68
2023/01/31 08:07:21;;;;;;;35.47;11.70;;;;;;;;;;5033561;28;20261;-68
2023/01/31 08:09:48;;;;;;;29.70;11.00;;;;;;;;;;5045316;28;20193;-67
2023/01/31 08:12:14;;;;;;;31.00;10.27;;;;;;;;;;5035000;28;20186;-67
2023/01/31 08:14:39;;;;;;;33.53;10.80;;;;;;;;;;5029430;28;20202;-66
2023/01/31 08:17:07;;;;;;;32.33;10.20;;;;;;;;;;5029907;28;20263;-68
2023/01/31 08:19:33;;;;;;;31.20;10.50;;;;;;;;;;5028378;28;20194;-68
2023/01/31 08:21:58;;;;;;;34.67;10.73;;;;;;;;;;5023841;28;20643;-68
2023/01/31 08:24:24;;;;;;;33.70;9.47;;;;;;;;;;5029797;28;20484;-69
2023/01/31 08:26:49;;;;;;;31.70;9.77;;;;;;;;;;5029697;28;20327;-68
2023/01/31 08:29:15;;;;;;;35.97;9.70;;;;;;;;;;5025896;28;20182;-68
2023/01/31 08:31:41;;;;;;;30.43;8.57;;;;;;;;;;5025217;28;20297;-67
2023/01/31 08:34:06;;;;;;;36.17;9.20;;;;;;;;;;5034849;28;20190;-68
2023/01/31 08:36:32;;;;;;;33.33;8.70;;;;;;;;;;5039176;28;20186;-68
2023/01/31 08:38:58;;;;;;;25.27;8.00;;;;;;;;;;5038000;28;20704;-68
2023/01/31 08:41:26;;;;;;;31.10;7.67;;;;;;;;;;5040932;28;20182;-67
2023/01/31 08:43:54;;;;;;;22.87;7.27;;;;;;;;;;5031288;28;20555;-68
2023/01/31 08:46:20;;;;;;;25.00;7.80;;;;;;;;;;5043296;28;20182;-68
2023/01/31 08:48:46;;;;;;;26.83;8.27;;;;;;;;;;5032068;28;20257;-69
2023/01/31 08:51:12;;;;;;;30.40;7.17;;;;;;;;;;5043671;28;20331;-69
2023/01/31 08:53:39;;;;;;;29.83;8.23;;;;;;;;;;5031529;28;20193;-69
2023/01/31 08:56:06;;;;;;;33.33;8.97;;;;;;;;;;5038373;28;20198;-68
2023/01/31 08:58:33;;;;;;;28.63;9.03;;;;;;;;;;5042725;28;20214;-68
2023/01/31 09:01:03;;;;;;;24.57;7.33;;;;;;;;;;5032693;28;20283;-68
2023/01/31 09:03:29;;;;;;;29.70;7.87;;;;;;;;;;5040939;28;20589;-67
2023/01/31 09:05:58;;;;;;;26.87;7.77;;;;;;;;;;5031743;28;20190;-67
2023/01/31 09:08:24;;;;;;;26.27;7.53;;;;;;;;;;5030597;28;20186;-67
2023/01/31 09:10:51;;;;;;;21.43;6.97;;;;;;;;;;5030725;28;20287;-67
2023/01/31 09:13:17;;;;;;;26.30;8.13;;;;;;;;;;5030864;28;20720;-67
2023/01/31 09:15:42;;;;;;;21.00;8.13;;;;;;;;;;5036089;28;20186;-67
2023/01/31 09:18:07;;;;;;;21.33;7.30;;;;;;;;;;5031928;28;20202;-67
2023/01/31 09:20:33;;;;;;;22.77;7.93;;;;;;;;;;5016539;28;20259;-67
2023/01/31 09:22:58;;;;;;;28.33;9.00;;;;;;;;;;5030052;28;20236;-67
2023/01/31 09:25:24;;;;;;;35.37;8.83;;;;;;;;;;5029027;28;20196;-67
2023/01/31 09:27:51;;;;;;;25.97;8.80;;;;;;;;;;5017507;28;20181;-67
2023/01/31 09:30:17;;;;;;;24.90;8.67;;;;;;;;;;5029448;28;20222;-67
2023/01/31 09:32:44;;;;;;;25.17;9.10;;;;;;;;;;5030192;28;20200;-67
2023/01/31 09:35:10;;;;;;;28.73;9.03;;;;;;;;;;5029855;28;20240;-67
2023/01/31 09:37:36;;;;;;;28.60;8.93;;;;;;;;;;5031680;28;20595;-67
2023/01/31 09:40:03;;;;;;;25.37;8.57;;;;;;;;;;5042112;28;20186;-67
2023/01/31 09:42:35;;;;;;;28.13;9.93;;;;;;;;;;5026951;28;20533;-67
2023/01/31 09:45:13;;;;;;;29.67;10.33;;;;;;;;;;5030118;28;20581;-66
2023/01/31 09:47:46;;;;;;;24.13;10.07;;;;;;;;;;5013399;28;20189;-67
2023/01/31 09:50:22;;;;;;;28.30;9.47;;;;;;;;;;5046017;28;20296;-67
2023/01/31 09:52:48;;;;;;;24.03;9.73;;;;;;;;;;5049230;28;20193;-67
2023/01/31 09:55:33;;;;;;;29.13;9.33;;;;;;;;;;5042456;28;20193;-67
2023/01/31 09:58:25;;;;;;;25.87;10.27;;;;;;;;;;5033809;28;20299;-67
2023/01/31 10:01:08;;;;;;;25.73;10.37;;;;;;;;;;5045403;28;20673;-67
2023/01/31 10:03:47;;;;;;;29.53;10.50;;;;;;;;;;5035597;28;20535;-67
2023/01/31 10:06:27;;;;;;;24.40;10.20;;;;;;;;;;5030667;28;20233;-67
2023/01/31 10:09:06;;;;;;;27.40;9.60;;;;;;;;;;5024892;28;20227;-67
2023/01/31 10:11:40;;;;;;;31.43;9.53;;;;;;;;;;5038209;28;20208;-67
2023/01/31 10:14:36;;;;;;;22.10;8.70;;;;;;;;;;5037509;28;20328;-68
2023/01/31 10:17:12;;;;;;;30.43;9.07;;;;;;;;;;5034488;28;20754;-67
2023/01/31 10:19:57;;;;;;;30.90;9.70;;;;;;;;;;5034617;28;20275;-67
2023/01/31 10:22:33;;;;;;;30.33;8.90;;;;;;;;;;5030649;28;20711;-66
2023/01/31 10:25:15;;;;;;;24.67;8.53;;;;;;;;;;5031859;28;20197;-67
2023/01/31 10:27:56;;;;;;;27.37;10.03;;;;;;;;;;5028240;28;20630;-67
2023/01/31 10:30:26;;;;;;;30.97;9.57;;;;;;;;;;5020024;28;20640;-66
2023/01/31 10:32:59;;;;;;;22.87;8.83;;;;;;;;;;5031439;28;20194;-67
2023/01/31 10:35:46;;;;;;;24.97;9.63;;;;;;;;;;5025564;28;20194;-66
2023/01/31 10:38:21;;;;;;;30.47;9.87;;;;;;;;;;5042516;28;20217;-66
2023/01/31 10:40:55;;;;;;;24.30;9.23;;;;;;;;;;5029909;28;20591;-67
2023/01/31 10:43:33;;;;;;;24.63;8.90;;;;;;;;;;5018080;28;20189;-66
2023/01/31 10:45:59;;;;;;;23.67;8.00;;;;;;;;;;5030902;28;20686;-67
2023/01/31 10:48:28;;;;;;;23.33;9.27;;;;;;;;;;5029952;28;20278;-66
2023/01/31 10:51:17;;;;;;;27.27;8.83;;;;;;;;;;5037716;28;20197;-66
2023/01/31 10:54:01;;;;;;;29.30;8.73;;;;;;;;;;5023287;28;20181;-67
2023/01/31 10:56:34;;;;;;;27.50;8.20;;;;;;;;;;5030577;28;20200;-67
2023/01/31 10:59:04;;;;;;;23.30;7.93;;;;;;;;;;5029004;28;20210;-67
2023/01/31 11:01:30;;;;;;;22.20;7.70;;;;;;;;;;5028560;28;20867;-66
2023/01/31 11:03:56;;;;;;;24.20;8.87;;;;;;;;;;5031149;28;20554;-66
2023/01/31 11:06:23;;;;;;;28.77;8.43;;;;;;;;;;5039840;28;21325;-66
2023/01/31 11:08:53;;;;;;;29.17;9.23;;;;;;;;;;5030534;28;20200;-66
2023/01/31 11:11:21;;;;;;;21.63;7.93;;;;;;;;;;5033221;28;20197;-66
2023/01/31 11:14:05;;;;;;;21.47;8.03;;;;;;;;;;5027290;28;20271;-66
2023/01/31 11:16:39;;;;;;;23.20;8.07;;;;;;;;;;5037848;28;20522;-67
2023/01/31 11:19:16;;;;;;;29.03;8.50;;;;;;;;;;5020274;28;20237;-66
2023/01/31 11:21:51;;;;;;;22.53;7.57;;;;;;;;;;5032866;28;20275;-66
2023/01/31 11:24:19;;;;;;;24.40;7.10;;;;;;;;;;5031095;28;20203;-67
2023/01/31 11:26:59;;;;;;;24.20;7.70;;;;;;;;;;5026435;28;20247;-65
2023/01/31 11:29:35;;;;;;;20.73;7.00;;;;;;;;;;5024136;28;20688;-67
2023/01/31 11:32:05;;;;;;;18.53;7.10;;;;;;;;;;5032753;28;20435;-68
2023/01/31 11:34:32;;;;;;;24.27;7.87;;;;;;;;;;5032260;28;20193;-67
2023/01/31 11:37:24;;;;;;;19.63;7.93;;;;;;;;;;5025273;28;20201;-67
2023/01/31 11:39:59;;;;;;;19.97;8.37;;;;;;;;;;5033138;28;20289;-65
2023/01/31 11:42:25;;;;;;;27.43;8.13;;;;;;;;;;5046732;28;20628;-66
2023/01/31 11:44:59;;;;;;;27.40;8.87;;;;;;;;;;5037581;28;20196;-66
2023/01/31 11:47:38;;;;;;;24.10;9.10;;;;;;;;;;5032806;28;20194;-66
2023/01/31 11:50:04;;;;;;;20.97;9.17;;;;;;;;;;5035080;28;20194;-66
2023/01/31 11:52:32;;;;;;;24.10;9.43;;;;;;;;;;5045896;28;20193;-68
2023/01/31 11:55:06;;;;;;;28.23;10.40;;;;;;;;;;5028913;28;20635;-67
2023/01/31 11:57:34;;;;;;;26.63;10.40;;;;;;;;;;5035771;28;20205;-66
2023/01/31 12:00:02;;;;;;;27.13;10.67;;;;;;;;;;5027419;28;20210;-66
2023/01/31 12:02:36;;;;;;;26.60;10.23;;;;;;;;;;5032052;28;20196;-66
2023/01/31 12:05:11;;;;;;;29.03;10.13;;;;;;;;;;5028894;28;20206;-67
2023/01/31 12:07:52;;;;;;;21.90;10.37;;;;;;;;;;5024983;28;20677;-67
2023/01/31 12:10:41;;;;;;;28.23;10.47;;;;;;;;;;5034680;28;20186;-67
2023/01/31 12:13:18;;;;;;;22.60;10.90;;;;;;;;;;5027741;28;20200;-67
2023/01/31 12:15:49;;;;;;;17.50;10.10;;;;;;;;;;5032280;28;20186;-67
2023/01/31 12:18:26;;;;;;;24.40;11.87;;;;;;;;;;5033983;28;20216;-67
2023/01/31 12:21:08;;;;;;;21.95;11.52;;;;;;;;;;5029877;28;20456;-68
2023/01/31 12:23:59;;;;;;;25.08;10.50;;;;;;;;;;5030928;28;20229;-67
2023/01/31 12:27:09;;;;;;;20.70;10.90;;;;;;;;;;5026147;28;20194;-68
2023/01/31 12:29:54;;;;;;;21.83;10.65;;;;;;;;;;5019816;28;20303;-68
2023/01/31 12:32:53;;;;;;;23.00;11.50;;;;;;;;;;5021866;28;20217;-67
2023/01/31 12:35:28;;;;;;;18.58;10.23;;;;;;;;;;5027152;28;20301;-67
2023/01/31 12:38:05;;;;;;;22.43;12.10;;;;;;;;;;5034311;28;20208;-67
2023/01/31 12:40:39;;;;;;;19.37;10.50;;;;;;;;;;5045687;28;20657;-68
2023/01/31 12:43:32;;;;;;;22.05;11.20;;;;;;;;;;5045458;28;20622;-68
2023/01/31 12:46:13;;;;;;;22.50;10.10;;;;;;;;;;5036919;28;20527;-67
2023/01/31 12:49:16;;;;;;;27.50;11.10;;;;;;;;;;5040109;28;20573;-67
2023/01/31 12:51:58;;;;;;;21.33;10.67;;;;;;;;;;5023565;28;20189;-67
2023/01/31 12:54:56;;;;;;;24.25;10.65;;;;;;;;;;5043692;28;20196;-68
2023/01/31 12:57:53;;;;;;;20.92;9.98;;;;;;;;;;5021228;28;20411;-68
2023/01/31 13:00:39;;;;;;;21.15;10.38;;;;;;;;;;5014916;28;20276;-68
2023/01/31 13:03:47;;;;;;;19.58;9.77;;;;;;;;;;5026399;28;20325;-69
2023/01/31 13:06:18;;;;;;;22.02;10.18;;;;;;;;;;5030318;28;20202;-68
2023/01/31 13:08:55;;;;;;;20.35;9.65;;;;;;;;;;5017093;28;20646;-68
2023/01/31 13:11:30;;;;;;;20.63;9.13;;;;;;;;;;5017786;28;20198;-68
2023/01/31 13:14:01;;;;;;;17.23;8.48;;;;;;;;;;5027014;28;20272;-68
2023/01/31 13:16:36;;;;;;;20.70;8.40;;;;;;;;;;5041748;28;20244;-68
2023/01/31 13:19:05;;;;;;;20.77;8.57;;;;;;;;;;5033528;28;20205;-68
2023/01/31 13:21:35;;;;;;;21.98;8.43;;;;;;;;;;5025984;28;20194;-68
2023/01/31 13:24:30;;;;;;;16.98;7.35;;;;;;;;;;5015588;28;20181;-68
2023/01/31 13:27:01;;;;;;;15.48;6.85;;;;;;;;;;5041781;28;20547;-68
2023/01/31 13:29:39;;;;;;;15.65;6.70;;;;;;;;;;5019597;28;20272;-68
2023/01/31 13:32:27;;;;;;;17.30;6.40;;;;;;;;;;5023239;28;20194;-68
2023/01/31 13:35:14;;;;;;;14.55;6.15;;;;;;;;;;5029353;28;20183;-68
2023/01/31 13:37:42;;;;;;;16.75;6.18;;;;;;;;;;5029932;28;20654;-68
2023/01/31 13:40:22;;;;;;;15.68;6.38;;;;;;;;;;5030982;28;20707;-68
2023/01/31 13:42:49;;;;;;;12.80;6.60;;;;;;;;;;5035000;28;20193;-68
2023/01/31 13:45:36;;;;;;;17.15;6.32;;;;;;;;;;5038092;28;20194;-68
2023/01/31 13:48:07;;;;;;;14.80;5.57;;;;;;;;;;5022311;28;20197;-68
2023/01/31 13:50:48;;;;;;;14.98;5.47;;;;;;;;;;5027818;28;20238;-68
2023/01/31 13:53:22;;;;;;;12.73;5.25;;;;;;;;;;5038626;28;20525;-68
2023/01/31 13:55:49;;;;;;;14.88;4.85;;;;;;;;;;5029219;28;20198;-66
2023/01/31 13:58:29;;;;;;;22.63;6.45;;;;;;;;;;5031775;28;20206;-65
2023/01/31 14:01:29;;;;;;;16.00;5.70;;;;;;;;;;5029257;28;20207;-67
2023/01/31 14:04:09;;;;;;;11.80;4.75;;;;;;;;;;5011220;28;20601;-68
2023/01/31 14:06:54;;;;;;;15.15;4.57;;;;;;;;;;5027920;28;20231;-66
2023/01/31 14:09:33;;;;;;;18.30;4.38;;;;;;;;;;5030318;28;20182;-66
2023/01/31 14:12:20;;;;;;;12.02;4.57;;;;;;;;;;5010169;28;20197;-66
2023/01/31 14:14:46;;;;;;;19.10;4.95;;;;;;;;;;5027830;28;20186;-67
2023/01/31 14:17:33;;;;;;;19.20;4.35;;;;;;;;;;5027032;28;20222;-66
2023/01/31 14:20:06;;;;;;;23.80;4.43;;;;;;;;;;5029660;28;20240;-67
2023/01/31 14:22:34;;;;;;;17.80;4.50;;;;;;;;;;5029040;28;20191;-66
2023/01/31 14:25:12;;;;;;;16.67;4.45;;;;;;;;;;5028627;28;20217;-66
2023/01/31 14:27:42;;;;;;;17.65;4.28;;;;;;;;;;5029908;28;20237;-66
2023/01/31 14:30:30;;;;;;;14.65;4.13;;;;;;;;;;5019690;28;20269;-66
2023/01/31 14:33:11;;;;;;;17.38;3.90;;;;;;;;;;5020994;28;20266;-66
2023/01/31 14:35:54;;;;;;;17.20;3.92;;;;;;;;;;5029038;28;20186;-67
2023/01/31 14:38:36;;;;;;;14.70;4.40;;;;;;;;;;5028107;28;20296;-67
2023/01/31 14:41:23;;;;;;;15.52;3.28;;;;;;;;;;5019862;28;20202;-66
2023/01/31 14:44:19;;;;;;;13.10;3.47;;;;;;;;;;5036047;28;20197;-66
2023/01/31 14:47:07;;;;;;;12.50;3.08;;;;;;;;;;5029042;28;20190;-66
2023/01/31 14:50:02;;;;;;;13.23;3.10;;;;;;;;;;5044029;28;20280;-67
2023/01/31 14:52:41;;;;;;;16.77;3.33;;;;;;;;;;5021535;28;20194;-66
2023/01/31 14:55:06;;;;;;;14.15;2.72;;;;;;;;;;5023008;28;20201;-67